Time;durP1;ratioP1;P1;durP2;ratioP2;P2;SDS_P1;SDS_P2;PMS_P1;PMS_P2;Temp;Humidity;BMP_temperature;BMP_pressure;BME280_temperature;BME280_humidity;BME280_pressure;Samples;Min_cycle;Max_cycle;Signal;HPM_P1;HPM_P2
2021/06/08 00:02:25;;;;;;;205.82;31.13;;;12.80;99.90;;;;;;5008682;28;20033;-81
2021/06/08 00:04:51;;;;;;;217.15;36.10;;;12.80;99.90;;;;;;5029224;28;20649;-87
2021/06/08 00:07:17;;;;;;;136.80;30.85;;;12.70;99.90;;;;;;5010194;28;20570;-82
2021/06/08 00:09:42;;;;;;;291.75;36.10;;;12.70;99.90;;;;;;5009914;28;20041;-87
2021/06/08 00:12:09;;;;;;;80.45;29.85;;;12.70;99.90;;;;;;5023178;28;20037;-83
2021/06/08 00:14:34;;;;;;;86.28;32.05;;;12.70;99.90;;;;;;5009289;28;20064;-87
2021/06/08 00:17:02;;;;;;;235.88;37.22;;;12.50;99.90;;;;;;5022574;28;20083;-87
2021/06/08 00:19:28;;;;;;;121.68;38.03;;;12.60;99.90;;;;;;5013656;28;20041;-81
2021/06/08 00:21:56;;;;;;;65.85;39.75;;;12.60;99.90;;;;;;5015294;28;20534;-83
2021/06/08 00:24:22;;;;;;;47.95;34.70;;;12.60;99.90;;;;;;5013136;28;20029;-82
2021/06/08 00:26:47;;;;;;;51.70;33.72;;;12.60;99.90;;;;;;5025903;28;20107;-83
2021/06/08 00:29:13;;;;;;;55.72;34.25;;;12.50;99.90;;;;;;5026798;28;20137;-84
2021/06/08 00:31:39;;;;;;;61.78;34.75;;;12.50;99.90;;;;;;5010710;28;20034;-81
2021/06/08 00:34:04;;;;;;;124.07;39.10;;;12.50;99.90;;;;;;5011106;28;20033;-80
2021/06/08 00:36:30;;;;;;;96.32;35.78;;;12.50;99.90;;;;;;5027182;28;20100;-81
2021/06/08 00:38:56;;;;;;;67.65;35.88;;;12.40;99.90;;;;;;5009024;28;20037;-82
2021/06/08 00:41:32;;;;;;;86.72;38.58;;;12.40;99.90;;;;;;5021525;28;20088;-80
2021/06/08 00:44:01;;;;;;;109.10;40.78;;;12.50;99.90;;;;;;5004911;28;20084;-84
2021/06/08 00:46:31;;;;;;;71.85;38.38;;;12.50;99.90;;;;;;5006891;28;20124;-82
2021/06/08 00:48:58;;;;;;;104.90;46.95;;;12.50;99.90;;;;;;5013649;28;20037;-82
2021/06/08 00:51:24;;;;;;;59.97;40.65;;;12.50;99.90;;;;;;5014561;28;20041;-82
2021/06/08 00:53:52;;;;;;;63.88;38.50;;;12.50;99.90;;;;;;5039944;28;20039;-82
2021/06/08 00:56:18;;;;;;;110.22;43.60;;;12.50;99.90;;;;;;5033372;28;20101;-81
2021/06/08 00:58:45;;;;;;;54.42;39.13;;;12.60;99.90;;;;;;5032534;28;20112;-83
2021/06/08 01:01:11;;;;;;;84.13;34.20;;;12.60;99.90;;;;;;5015882;28;20041;-83
2021/06/08 01:03:37;;;;;;;166.70;38.72;;;12.50;99.90;;;;;;5035823;28;20101;-81
2021/06/08 01:06:03;;;;;;;109.30;38.03;;;12.50;99.90;;;;;;5017598;28;20081;-82
2021/06/08 01:08:35;;;;;;;79.15;33.75;;;12.50;99.90;;;;;;5018418;28;20381;-82
2021/06/08 01:11:01;;;;;;;97.88;36.45;;;12.70;99.90;;;;;;5034827;28;20057;-82
2021/06/08 01:13:28;;;;;;;195.38;40.28;;;12.50;99.90;;;;;;5033731;28;20083;-82
2021/06/08 01:15:54;;;;;;;114.47;39.53;;;12.40;99.90;;;;;;5031628;28;20052;-83
2021/06/08 01:18:21;;;;;;;123.72;39.38;;;12.40;99.90;;;;;;5035633;28;20675;-84
2021/06/08 01:20:53;;;;;;;95.93;38.15;;;12.40;99.90;;;;;;5020731;28;20110;-85
2021/06/08 01:23:19;;;;;;;155.68;40.30;;;12.40;99.90;;;;;;5035943;28;20063;-81
2021/06/08 01:25:45;;;;;;;161.82;45.38;;;12.30;99.90;;;;;;5034116;28;20787;-82
2021/06/08 01:28:10;;;;;;;103.70;38.65;;;12.20;99.90;;;;;;5015067;28;20056;-82
2021/06/08 01:30:57;;;;;;;101.90;39.97;;;12.10;99.90;;;;;;5011643;28;20054;-81
2021/06/08 01:33:26;;;;;;;65.78;38.83;;;12.10;99.90;;;;;;5018304;28;20435;-82
2021/06/08 01:35:53;;;;;;;70.15;40.53;;;12.10;99.90;;;;;;5013051;28;20057;-83
2021/06/08 01:38:20;;;;;;;85.97;41.28;;;12.20;99.90;;;;;;5025914;28;20048;-82
2021/06/08 01:40:50;;;;;;;127.97;43.28;;;12.30;99.90;;;;;;5014567;28;20042;-81
2021/06/08 01:43:18;;;;;;;137.98;39.78;;;12.30;99.90;;;;;;5030080;28;20037;-82
2021/06/08 01:45:49;;;;;;;96.10;40.63;;;12.30;99.90;;;;;;5029614;28;20108;-81
2021/06/08 01:48:16;;;;;;;98.13;42.65;;;12.20;99.90;;;;;;5011753;28;20562;-81
2021/06/08 01:50:45;;;;;;;75.32;42.47;;;12.20;99.90;;;;;;5029053;28;20029;-86
2021/06/08 01:53:24;;;;;;;139.52;46.67;;;12.30;99.90;;;;;;5013576;28;20160;-83
2021/06/08 01:55:53;;;;;;;109.63;47.13;;;12.30;99.90;;;;;;5006951;28;20056;-81
2021/06/08 01:58:43;;;;;;;95.03;44.20;;;12.30;99.90;;;;;;5029187;28;20046;-82
2021/06/08 02:01:24;;;;;;;124.45;48.70;;;12.30;99.90;;;;;;5029642;28;20048;-81
2021/06/08 02:04:06;;;;;;;109.63;47.55;;;12.30;99.90;;;;;;5029558;28;20037;-81
2021/06/08 02:06:47;;;;;;;143.55;49.75;;;12.40;99.90;;;;;;5026597;28;20114;-81
2021/06/08 02:09:42;;;;;;;102.50;47.42;;;12.30;99.90;;;;;;5024918;28;20567;-83
2021/06/08 02:12:16;;;;;;;108.05;50.10;;;12.30;99.90;;;;;;4982339;28;20041;-81
2021/06/08 02:15:04;;;;;;;99.05;48.38;;;12.30;99.90;;;;;;5030295;28;20041;-86
2021/06/08 02:17:39;;;;;;;101.13;50.50;;;12.30;99.90;;;;;;5029013;28;20056;-82
2021/06/08 02:20:11;;;;;;;125.30;51.95;;;12.30;99.90;;;;;;5028075;28;20037;-83
2021/06/08 02:22:40;;;;;;;162.60;50.17;;;12.30;99.90;;;;;;5014956;28;20172;-82
2021/06/08 02:25:07;;;;;;;329.73;62.97;;;12.30;99.90;;;;;;5033641;28;20778;-83
2021/06/08 02:27:39;;;;;;;130.32;53.78;;;12.20;99.90;;;;;;5018713;28;20043;-83
2021/06/08 02:30:06;;;;;;;139.20;55.13;;;12.20;99.90;;;;;;5028492;28;20037;-82
2021/06/08 02:32:33;;;;;;;161.55;53.75;;;12.20;99.90;;;;;;5014362;28;20093;-83
2021/06/08 02:35:00;;;;;;;120.50;52.00;;;12.20;99.90;;;;;;5017166;28;20041;-87
2021/06/08 02:37:45;;;;;;;110.53;53.72;;;12.20;99.90;;;;;;5033446;28;20041;-86
2021/06/08 02:40:13;;;;;;;159.88;57.67;;;12.20;99.90;;;;;;5015679;28;20085;-82
2021/06/08 02:42:40;;;;;;;145.75;53.42;;;12.20;99.90;;;;;;5029624;28;20108;-82
2021/06/08 02:45:15;;;;;;;158.10;55.80;;;12.20;99.90;;;;;;5035788;28;20045;-82
2021/06/08 02:47:47;;;;;;;147.38;55.55;;;12.20;99.90;;;;;;5019667;28;20042;-84
2021/06/08 02:50:14;;;;;;;146.43;51.35;;;12.70;99.90;;;;;;5034364;28;20119;-83
2021/06/08 02:52:43;;;;;;;181.23;53.20;;;12.30;99.90;;;;;;5037719;28;20033;-82
2021/06/08 02:55:09;;;;;;;152.65;53.53;;;12.20;99.90;;;;;;5033636;28;20476;-82
2021/06/08 02:57:36;;;;;;;116.65;54.60;;;12.20;99.90;;;;;;5029082;28;20045;-81
2021/06/08 03:00:06;;;;;;;109.93;52.35;;;12.20;99.90;;;;;;5028512;28;20037;-82
2021/06/08 03:02:36;;;;;;;83.75;49.92;;;12.30;99.90;;;;;;5024677;28;20037;-81
2021/06/08 03:05:11;;;;;;;80.72;47.00;;;12.30;99.90;;;;;;5028764;28;20130;-84
2021/06/08 03:07:40;;;;;;;73.95;48.30;;;12.30;99.90;;;;;;5029182;28;20037;-84
2021/06/08 03:10:13;;;;;;;144.52;48.65;;;12.80;99.90;;;;;;5025061;28;20407;-82
2021/06/08 03:12:52;;;;;;;128.82;48.28;;;12.40;99.90;;;;;;5021583;28;20487;-82
2021/06/08 03:15:20;;;;;;;107.40;48.60;;;12.40;99.90;;;;;;5010051;28;20571;-81
2021/06/08 03:17:46;;;;;;;86.88;49.25;;;12.30;99.90;;;;;;5025548;28;20038;-80
2021/06/08 03:20:37;;;;;;;75.40;47.30;;;12.30;99.90;;;;;;5024468;28;20404;-81
2021/06/08 03:23:06;;;;;;;83.13;48.83;;;12.40;99.90;;;;;;5026722;28;20040;-82
2021/06/08 03:25:34;;;;;;;84.20;48.63;;;12.30;99.90;;;;;;5028140;28;20045;-86
2021/06/08 03:28:01;;;;;;;71.32;44.47;;;12.30;99.90;;;;;;5028107;28;20496;-83
2021/06/08 03:30:27;;;;;;;189.95;50.58;;;12.40;99.90;;;;;;5020541;28;20172;-84
2021/06/08 03:32:54;;;;;;;301.38;50.45;;;12.30;99.90;;;;;;5029569;28;20522;-82
2021/06/08 03:35:22;;;;;;;176.15;45.67;;;12.30;99.90;;;;;;5030143;28;20042;-82
2021/06/08 03:37:48;;;;;;;167.00;45.10;;;12.30;99.90;;;;;;5019361;28;20103;-81
2021/06/08 03:40:17;;;;;;;86.93;41.80;;;12.30;99.90;;;;;;5038056;28;20120;-82
2021/06/08 03:42:43;;;;;;;133.40;45.72;;;12.20;99.90;;;;;;5030489;28;20032;-81
2021/06/08 03:45:14;;;;;;;89.72;43.05;;;12.20;99.90;;;;;;5019263;28;20045;-85
2021/06/08 03:47:46;;;;;;;119.80;50.45;;;12.20;99.90;;;;;;5017405;28;20065;-82
2021/06/08 03:50:15;;;;;;;163.32;48.58;;;12.20;99.90;;;;;;5033455;28;20117;-82
2021/06/08 03:52:43;;;;;;;225.23;46.70;;;12.20;99.90;;;;;;5032999;28;20116;-82
2021/06/08 03:55:09;;;;;;;207.68;50.47;;;12.20;99.90;;;;;;5036217;28;20140;-82
2021/06/08 03:57:43;;;;;;;104.57;43.40;;;12.20;99.90;;;;;;5019880;28;20135;-82
2021/06/08 04:00:10;;;;;;;85.50;44.63;;;12.20;99.90;;;;;;5042329;28;20041;-82
2021/06/08 04:02:39;;;;;;;150.55;49.10;;;12.30;99.90;;;;;;5036075;28;20037;-83
2021/06/08 04:05:07;;;;;;;144.10;45.45;;;12.30;99.90;;;;;;5031265;28;20037;-82
2021/06/08 04:07:33;;;;;;;117.25;48.42;;;12.30;99.90;;;;;;5031118;28;20040;-83
2021/06/08 04:09:59;;;;;;;78.43;44.40;;;12.30;99.90;;;;;;5037074;28;20419;-82
2021/06/08 04:12:25;;;;;;;74.63;45.00;;;12.30;99.90;;;;;;5020208;28;20033;-82
2021/06/08 04:14:51;;;;;;;56.15;40.22;;;12.40;99.90;;;;;;5021728;28;20546;-83
2021/06/08 04:17:17;;;;;;;51.00;37.15;;;12.80;99.90;;;;;;5017864;28;20045;-83
2021/06/08 04:19:44;;;;;;;89.40;37.15;;;12.50;99.90;;;;;;5022140;28;20045;-82
2021/06/08 04:22:10;;;;;;;55.63;35.20;;;12.40;99.90;;;;;;5020452;28;20057;-82
2021/06/08 04:24:36;;;;;;;84.70;38.00;;;12.40;99.90;;;;;;5023691;28;20407;-81
2021/06/08 04:27:03;;;;;;;69.88;42.63;;;12.50;99.90;;;;;;5023719;28;20052;-82
2021/06/08 04:29:29;;;;;;;182.20;52.95;;;12.50;99.90;;;;;;5004875;28;20041;-82
2021/06/08 04:31:57;;;;;;;86.40;41.97;;;12.50;99.90;;;;;;5017053;28;20037;-83
2021/06/08 04:34:23;;;;;;;64.50;39.75;;;12.50;99.90;;;;;;5008071;28;20077;-84
2021/06/08 04:36:50;;;;;;;49.80;35.83;;;12.50;99.90;;;;;;5022283;28;20099;-82
2021/06/08 04:39:16;;;;;;;49.92;35.40;;;12.50;99.90;;;;;;5025719;28;20052;-82
2021/06/08 04:41:44;;;;;;;51.85;35.75;;;12.40;99.90;;;;;;5024380;28;20037;-83
2021/06/08 04:44:16;;;;;;;86.63;36.42;;;12.50;99.90;;;;;;5020186;28;20034;-84
2021/06/08 04:46:46;;;;;;;63.17;37.85;;;12.70;99.90;;;;;;5026370;28;20819;-85
2021/06/08 04:49:27;;;;;;;66.97;37.97;;;12.50;99.90;;;;;;4994788;28;20780;-84
2021/06/08 04:52:04;;;;;;;70.53;38.08;;;12.50;99.90;;;;;;5022551;28;20107;-82
2021/06/08 04:54:45;;;;;;;85.60;38.22;;;12.50;99.90;;;;;;5028708;28;20429;-83
2021/06/08 04:57:14;;;;;;;51.17;35.03;;;12.50;99.90;;;;;;5014146;28;20041;-82
2021/06/08 05:00:06;;;;;;;41.88;33.67;;;12.50;99.90;;;;;;5006053;28;20046;-82
2021/06/08 05:02:40;;;;;;;47.65;34.22;;;12.40;99.90;;;;;;5023383;28;20444;-81
2021/06/08 05:05:16;;;;;;;47.22;36.20;;;12.60;99.90;;;;;;5011562;28;20711;-82
2021/06/08 05:07:52;;;;;;;43.55;34.50;;;12.80;99.90;;;;;;5030058;28;20037;-83
2021/06/08 05:10:20;;;;;;;46.53;35.50;;;12.70;99.90;;;;;;5030157;28;20037;-82
2021/06/08 05:12:48;;;;;;;43.00;34.60;;;13.50;99.90;;;;;;5026958;28;20392;-82
2021/06/08 05:15:16;;;;;;;46.80;36.15;;;12.80;99.90;;;;;;5026350;28;20152;-83
2021/06/08 05:17:44;;;;;;;37.05;32.63;;;12.90;99.90;;;;;;5025191;28;20037;-82
2021/06/08 05:20:12;;;;;;;45.97;34.97;;;12.90;99.90;;;;;;5022266;28;20408;-82
2021/06/08 05:22:39;;;;;;;44.08;32.40;;;13.60;99.90;;;;;;5026016;28;20132;-83
2021/06/08 05:25:17;;;;;;;35.95;30.55;;;13.00;99.90;;;;;;5023255;28;20399;-83
2021/06/08 05:28:40;;;;;;;35.60;31.25;;;13.10;99.90;;;;;;5019073;28;20745;-82
2021/06/08 05:31:06;;;;;;;37.17;31.80;;;13.00;99.90;;;;;;5008353;28;20040;-82
2021/06/08 05:33:57;;;;;;;39.92;33.45;;;13.00;99.90;;;;;;4996413;28;20045;-81
2021/06/08 05:36:32;;;;;;;36.30;30.85;;;13.10;99.90;;;;;;5023476;28;20037;-83
2021/06/08 05:38:58;;;;;;;34.92;31.25;;;13.20;99.90;;;;;;5026674;28;20431;-83
2021/06/08 05:44:38;;;;;;;38.25;32.17;;;13.80;99.90;;;;;;5025959;28;20388;-84
2021/06/08 05:47:06;;;;;;;47.70;32.72;;;13.40;99.90;;;;;;5023640;28;20046;-83
2021/06/08 05:49:41;;;;;;;32.95;29.45;;;13.50;99.90;;;;;;5009327;28;20103;-85
2021/06/08 05:52:11;;;;;;;33.13;29.63;;;13.60;99.90;;;;;;5013295;28;20065;-85
2021/06/08 05:54:38;;;;;;;34.97;29.65;;;13.60;99.90;;;;;;5013061;28;20041;-85
2021/06/08 05:57:29;;;;;;;35.33;28.63;;;13.60;99.90;;;;;;5031633;28;20419;-85
2021/06/08 06:00:15;;;;;;;31.65;28.30;;;13.60;99.90;;;;;;5021805;28;20033;-85
2021/06/08 06:02:50;;;;;;;34.78;30.85;;;13.70;99.90;;;;;;5011777;28;20053;-85
2021/06/08 06:05:40;;;;;;;36.63;31.58;;;13.70;99.90;;;;;;4998969;28;20080;-85
2021/06/08 06:08:11;;;;;;;33.78;30.17;;;13.80;99.90;;;;;;5030420;28;20045;-85
2021/06/08 06:10:44;;;;;;;34.53;30.38;;;13.90;99.90;;;;;;4995218;28;20128;-85
2021/06/08 06:13:43;;;;;;;35.70;30.13;;;13.80;99.90;;;;;;5025361;28;20366;-85
2021/06/08 06:16:12;;;;;;;34.65;29.98;;;13.90;99.90;;;;;;5027710;28;20091;-85
2021/06/08 06:18:40;;;;;;;33.65;28.52;;;13.90;99.90;;;;;;5010839;28;20050;-85
2021/06/08 06:21:21;;;;;;;32.10;28.70;;;13.90;99.90;;;;;;4983522;28;20042;-85
2021/06/08 06:23:49;;;;;;;29.75;26.60;;;14.20;99.90;;;;;;4978516;28;20049;-85
2021/06/08 06:26:44;;;;;;;34.03;28.45;;;14.10;99.90;;;;;;5011354;28;20046;-85
2021/06/08 06:29:26;;;;;;;31.83;27.58;;;14.20;99.90;;;;;;4980409;28;20424;-85
2021/06/08 06:32:11;;;;;;;28.52;25.55;;;14.30;99.90;;;;;;4996381;28;20049;-85
2021/06/08 06:34:43;;;;;;;28.85;25.90;;;14.50;99.90;;;;;;5026954;28;20687;-85
2021/06/08 06:37:31;;;;;;;28.70;25.35;;;14.40;99.90;;;;;;4995588;28;20057;-85
2021/06/08 06:39:59;;;;;;;27.42;24.48;;;14.60;99.90;;;;;;4990683;28;20514;-85
2021/06/08 06:42:37;;;;;;;27.15;24.20;;;14.90;99.90;;;;;;5022300;28;20982;-85
2021/06/08 06:45:24;;;;;;;27.40;24.67;;;14.80;99.90;;;;;;5023896;28;20033;-85
2021/06/08 06:47:50;;;;;;;27.10;24.30;;;14.70;99.90;;;;;;5025409;28;20116;-85
2021/06/08 06:50:17;;;;;;;27.08;24.30;;;15.10;99.90;;;;;;5022507;28;20219;-85
2021/06/08 06:52:55;;;;;;;26.65;24.02;;;14.70;99.90;;;;;;4981208;28;20064;-85
2021/06/08 06:55:25;;;;;;;26.13;23.33;;;14.50;99.90;;;;;;5008131;28;20048;-85
2021/06/08 06:58:21;;;;;;;26.85;24.13;;;14.50;99.90;;;;;;5021647;28;20045;-84
2021/06/08 07:05:56;;;;;;;25.83;22.58;;;14.70;99.90;;;;;;4977643;28;20236;-84
2021/06/08 07:15:27;;;;;;;27.33;24.70;;;15.30;99.90;;;;;;5003516;28;20045;-84
2021/06/08 07:17:54;;;;;;;22.45;20.25;;;15.60;99.90;;;;;;5002857;28;20041;-84
2021/06/08 07:20:20;;;;;;;25.27;22.65;;;15.80;99.90;;;;;;5008444;28;20037;-85
2021/06/08 07:22:49;;;;;;;24.60;22.13;;;16.00;99.90;;;;;;5025161;28;20037;-85
2021/06/08 07:25:17;;;;;;;24.90;22.50;;;16.70;99.90;;;;;;5027468;28;20052;-85
2021/06/08 07:27:45;;;;;;;25.73;23.08;;;16.70;99.90;;;;;;5026805;28;20037;-85
2021/06/08 07:30:16;;;;;;;25.00;22.63;;;16.80;99.90;;;;;;5009733;28;20069;-85
2021/06/08 07:32:59;;;;;;;23.85;21.35;;;16.90;99.90;;;;;;5025061;28;20038;-85
2021/06/08 07:35:45;;;;;;;22.52;20.38;;;17.20;99.90;;;;;;5025620;28;20041;-84
2021/06/08 07:38:22;;;;;;;22.95;20.65;;;17.50;99.90;;;;;;5026784;28;20042;-84
2021/06/08 07:40:56;;;;;;;20.73;18.77;;;17.90;99.90;;;;;;5023254;28;20040;-85
2021/06/08 07:43:25;;;;;;;22.80;20.58;;;17.80;99.90;;;;;;5023493;28;20558;-84
2021/06/08 07:45:54;;;;;;;28.23;20.38;;;18.20;99.50;;;;;;5009456;28;20926;-84
2021/06/08 07:48:43;;;;;;;23.25;21.08;;;18.60;98.80;;;;;;5009271;28;20056;-84
2021/06/08 07:51:10;;;;;;;22.75;20.50;;;18.50;98.30;;;;;;5024438;28;20052;-85
2021/06/08 07:53:37;;;;;;;20.80;18.73;;;18.60;97.60;;;;;;5025317;28;20055;-84
2021/06/08 07:56:06;;;;;;;21.38;19.38;;;18.70;97.10;;;;;;5021916;28;20033;-84
2021/06/08 07:58:39;;;;;;;21.25;19.17;;;18.80;96.80;;;;;;5025069;28;20103;-85
2021/06/08 08:01:07;;;;;;;22.33;20.23;;;19.00;96.70;;;;;;5024528;28;20486;-85
2021/06/08 08:03:55;;;;;;;22.58;20.38;;;19.20;96.10;;;;;;4998563;28;20131;-85
2021/06/08 08:06:23;;;;;;;22.30;20.20;;;19.30;96.10;;;;;;5023704;28;20048;-86
2021/06/08 08:08:53;;;;;;;19.85;17.95;;;19.40;96.40;;;;;;5006097;28;20564;-86
2021/06/08 08:11:28;;;;;;;19.38;17.48;;;19.90;96.20;;;;;;5022822;28;20037;-85
2021/06/08 08:14:15;;;;;;;19.58;17.67;;;20.00;95.40;;;;;;5020982;28;20038;-85
2021/06/08 08:17:01;;;;;;;18.98;17.08;;;20.00;94.70;;;;;;4993567;28;20045;-85
2021/06/08 08:19:47;;;;;;;18.17;16.23;;;20.10;94.70;;;;;;5005201;28;20084;-85
2021/06/08 08:22:34;;;;;;;18.33;16.55;;;20.40;95.10;;;;;;5007896;28;20041;-85
2021/06/08 08:25:20;;;;;;;18.00;16.20;;;20.30;94.40;;;;;;5010793;28;20514;-86
2021/06/08 08:28:09;;;;;;;17.02;15.32;;;20.60;94.70;;;;;;5010456;28;20514;-83
2021/06/08 08:30:44;;;;;;;16.00;14.48;;;20.80;93.80;;;;;;5008884;28;20061;-85
2021/06/08 08:33:24;;;;;;;15.27;13.77;;;20.80;92.90;;;;;;5021953;28;20033;-85
2021/06/08 08:35:52;;;;;;;15.50;12.75;;;20.80;92.20;;;;;;5020124;28;20671;-85
2021/06/08 08:38:18;;;;;;;13.60;11.90;;;20.90;92.30;;;;;;5019277;28;20127;-86
2021/06/08 08:41:34;;;;;;;13.82;12.43;;;21.10;92.30;;;;;;5043094;28;20037;-85
2021/06/08 08:49:03;;;;;;;16.08;12.57;;;21.60;91.10;;;;;;4979693;28;20119;-85
2021/06/08 08:52:28;;;;;;;11.75;10.55;;;21.80;91.30;;;;;;5005007;28;20048;-84
2021/06/08 08:56:10;;;;;;;11.48;10.27;;;22.00;90.50;;;;;;4965017;28;20111;-85
2021/06/08 08:58:50;;;;;;;11.57;10.48;;;22.20;89.20;;;;;;4916830;29;20059;-85
2021/06/08 09:01:38;;;;;;;10.52;9.32;;;22.20;87.80;;;;;;4927908;28;20114;-85
2021/06/08 09:04:06;;;;;;;9.00;7.28;;;22.30;88.30;;;;;;5019987;28;20141;-86
2021/06/08 09:06:32;;;;;;;10.45;8.20;;;22.50;87.00;;;;;;5004661;28;20132;-84
2021/06/08 09:08:58;;;;;;;8.95;8.05;;;22.60;85.40;;;;;;5019965;28;20045;-85
2021/06/08 09:11:24;;;;;;;9.23;8.32;;;22.60;82.60;;;;;;5021765;28;20397;-86
2021/06/08 09:13:51;;;;;;;7.78;6.85;;;22.60;81.40;;;;;;5022657;28;20061;-85
2021/06/08 09:16:22;;;;;;;9.13;6.63;;;23.00;81.60;;;;;;5007030;28;20041;-86
2021/06/08 09:18:48;;;;;;;6.72;6.05;;;23.10;84.30;;;;;;5019867;28;20045;-85
2021/06/08 09:21:17;;;;;;;5.15;4.60;;;23.10;79.20;;;;;;5005897;28;20063;-85
2021/06/08 09:23:44;;;;;;;3.92;3.15;;;23.40;76.60;;;;;;5018750;28;20029;-85
2021/06/08 09:26:10;;;;;;;2.53;2.17;;;23.20;73.90;;;;;;5005675;28;20045;-84
2021/06/08 09:28:39;;;;;;;4.18;3.30;;;23.40;68.50;;;;;;5018112;28;20047;-85
2021/06/08 09:31:10;;;;;;;7.20;3.05;;;23.40;64.30;;;;;;5018714;28;20035;-84
2021/06/08 09:34:07;;;;;;;3.83;1.02;;;23.30;62.40;;;;;;5001714;28;20401;-85
2021/06/08 09:36:48;;;;;;;2.95;2.15;;;23.30;62.00;;;;;;5016753;28;20053;-85
2021/06/08 09:39:57;;;;;;;4.90;3.00;;;23.20;63.90;;;;;;5007012;28;20916;-84
2021/06/08 09:42:30;;;;;;;4.03;3.65;;;23.10;63.80;;;;;;5004144;28;20041;-85
2021/06/08 09:45:20;;;;;;;7.90;5.95;;;23.20;66.40;;;;;;5022103;28;20044;-85
2021/06/08 09:48:04;;;;;;;7.18;6.03;;;23.30;68.70;;;;;;5033413;28;20120;-85
2021/06/08 09:50:39;;;;;;;;;;;23.60;74.00;;;;;;5021060;28;20037;-84
2021/06/08 09:53:30;;;;;;;6.97;6.05;;;23.60;72.80;;;;;;5036533;28;19921;-84
2021/06/08 09:56:06;;;;;;;6.85;5.68;;;23.80;72.00;;;;;;5002433;28;20087;-84
2021/06/08 09:58:52;;;;;;;7.10;5.15;;;23.90;70.30;;;;;;5019084;28;20045;-85
2021/06/08 10:01:53;;;;;;;7.45;4.95;;;23.90;69.10;;;;;;4986737;28;20092;-84
2021/06/08 10:04:59;;;;;;;6.05;5.45;;;23.90;69.60;;;;;;5037124;28;20056;-84
2021/06/08 10:08:28;;;;;;;5.25;4.72;;;23.90;70.20;;;;;;5018029;28;20040;-83
2021/06/08 10:11:41;;;;;;;4.45;3.78;;;24.00;70.40;;;;;;5002330;28;20034;-84
2021/06/08 10:18:10;;;;;;;5.55;4.10;;;24.20;67.80;;;;;;5013006;28;20109;-84
2021/06/08 10:20:39;;;;;;;4.03;3.30;;;24.30;69.90;;;;;;5000968;28;20033;-84
2021/06/08 10:26:26;;;;;;;5.70;3.08;;;24.40;63.80;;;;;;5006163;28;20047;-85
2021/06/08 10:28:51;;;;;;;7.45;3.55;;;24.40;64.90;;;;;;5001355;28;20065;-84
2021/06/08 10:31:17;;;;;;;5.57;3.17;;;24.50;66.30;;;;;;5002335;28;20061;-85
2021/06/08 10:33:43;;;;;;;5.07;3.50;;;24.60;65.90;;;;;;5005696;28;20780;-84
2021/06/08 10:36:09;;;;;;;5.93;3.28;;;24.60;64.00;;;;;;4999271;28;20703;-84
2021/06/08 10:38:36;;;;;;;6.05;3.25;;;24.60;63.10;;;;;;5005113;28;20730;-82
2021/06/08 10:41:01;;;;;;;4.32;3.25;;;24.80;62.70;;;;;;5009890;28;20080;-84
2021/06/08 10:43:29;;;;;;;4.65;3.88;;;24.80;62.80;;;;;;5042988;28;20036;-82
2021/06/08 10:45:56;;;;;;;5.20;3.97;;;24.80;63.90;;;;;;5024492;28;20152;-84
2021/06/08 10:48:37;;;;;;;5.95;3.58;;;24.80;61.60;;;;;;5024746;28;20411;-81
2021/06/08 10:51:13;;;;;;;6.53;4.10;;;24.90;61.30;;;;;;5010129;28;20109;-82
2021/06/08 10:53:41;;;;;;;7.90;5.15;;;24.90;62.30;;;;;;5010114;28;20041;-82
2021/06/08 10:56:28;;;;;;;6.15;5.43;;;24.50;62.00;;;;;;5024759;28;20048;-81
2021/06/08 10:59:06;;;;;;;9.20;4.93;;;24.40;62.00;;;;;;5008319;28;20610;-84
2021/06/08 11:01:38;;;;;;;7.75;5.50;;;24.50;62.10;;;;;;5037360;28;20106;-84
2021/06/08 11:04:07;;;;;;;6.90;6.07;;;24.50;64.30;;;;;;5025834;28;20059;-82
2021/06/08 11:06:51;;;;;;;5.93;5.10;;;24.60;67.40;;;;;;5007504;28;20095;-83
2021/06/08 11:09:23;;;;;;;9.82;5.50;;;24.40;62.60;;;;;;5008670;28;20041;-84
2021/06/08 11:12:01;;;;;;;9.15;5.78;;;24.80;63.70;;;;;;5026804;28;20067;-84
2021/06/08 11:14:40;;;;;;;6.60;5.13;;;24.80;61.50;;;;;;5033122;28;20029;-84
2021/06/08 11:17:15;;;;;;;11.65;5.85;;;25.10;61.00;;;;;;5027283;28;20140;-84
2021/06/08 11:19:43;;;;;;;7.53;6.10;;;25.00;60.60;;;;;;5027726;28;20419;-84
2021/06/08 11:22:18;;;;;;;6.28;5.68;;;25.10;62.10;;;;;;5024880;28;20037;-83
2021/06/08 11:24:48;;;;;;;7.72;5.90;;;25.20;61.20;;;;;;5014288;28;20038;-84
2021/06/08 11:27:17;;;;;;;9.32;6.32;;;25.20;60.70;;;;;;5024411;28;20935;-83
2021/06/08 11:29:57;;;;;;;8.20;6.10;;;25.20;61.80;;;;;;5022979;28;20041;-84
2021/06/08 11:32:29;;;;;;;5.20;4.53;;;25.30;64.10;;;;;;5024417;28;20224;-83
2021/06/08 11:35:23;;;;;;;7.97;4.95;;;25.50;63.60;;;;;;5029427;28;20036;-84
2021/06/08 11:38:23;;;;;;;6.53;4.78;;;25.70;62.60;;;;;;5029625;28;20059;-86
2021/06/08 11:41:10;;;;;;;7.50;4.88;;;25.70;62.10;;;;;;5025031;28;20477;-83
2021/06/08 11:43:35;;;;;;;12.20;6.60;;;25.60;60.50;;;;;;5029241;28;20455;-83
2021/06/08 11:46:27;;;;;;;7.47;5.32;;;25.50;60.80;;;;;;5024991;28;20075;-83
2021/06/08 11:49:33;;;;;;;6.45;4.50;;;25.20;61.70;;;;;;5029601;28;20087;-82
2021/06/08 11:59:59;;;;;;;5.13;4.50;;;25.10;61.60;;;;;;5009845;28;20040;-82
2021/06/08 12:02:31;;;;;;;5.70;3.92;;;25.20;61.40;;;;;;5009247;28;20038;-85
2021/06/08 12:05:14;;;;;;;6.45;4.15;;;25.20;59.50;;;;;;5014230;28;20064;-86
2021/06/08 12:07:49;;;;;;;4.43;4.03;;;25.50;59.90;;;;;;5031473;28;20037;-83
2021/06/08 12:10:36;;;;;;;5.85;5.00;;;25.30;60.80;;;;;;5027516;28;20050;-83
2021/06/08 12:13:11;;;;;;;6.53;3.95;;;25.20;59.60;;;;;;5025361;28;20040;-84
2021/06/08 12:15:39;;;;;;;5.22;4.28;;;25.20;61.30;;;;;;5028593;28;20064;-82
2021/06/08 12:18:14;;;;;;;8.30;4.32;;;25.20;61.00;;;;;;5007032;28;20041;-82
2021/06/08 12:20:45;;;;;;;4.53;3.40;;;25.10;60.60;;;;;;5027989;28;20029;-82
2021/06/08 12:23:23;;;;;;;6.38;4.38;;;24.90;60.10;;;;;;5024766;28;20458;-81
2021/06/08 12:25:48;;;;;;;4.13;3.28;;;25.20;61.70;;;;;;5027417;28;20041;-83
2021/06/08 12:28:14;;;;;;;6.13;4.18;;;25.10;60.60;;;;;;5024380;28;20044;-82
2021/06/08 12:30:40;;;;;;;5.60;3.85;;;24.90;60.70;;;;;;5007794;28;20868;-83
2021/06/08 12:33:06;;;;;;;6.70;4.45;;;25.30;61.70;;;;;;5023831;28;20038;-82
2021/06/08 12:35:36;;;;;;;4.85;4.35;;;25.10;60.20;;;;;;5027170;28;20075;-83
2021/06/08 12:38:20;;;;;;;4.50;3.25;;;25.10;60.40;;;;;;5023749;28;20042;-83
2021/06/08 12:41:04;;;;;;;6.93;4.15;;;25.20;61.40;;;;;;5024819;28;20866;-84
2021/06/08 12:43:43;;;;;;;4.55;3.95;;;25.20;62.30;;;;;;5025326;28;20052;-85
2021/06/08 12:46:09;;;;;;;4.70;3.95;;;25.20;60.10;;;;;;5027334;28;20104;-84
2021/06/08 12:53:00;;;;;;;5.10;3.40;;;24.90;58.20;;;;;;4953932;28;20138;-83
2021/06/08 12:55:29;;;;;;;4.05;2.90;;;24.80;58.30;;;;;;4987717;28;20561;-82
2021/06/08 12:57:58;;;;;;;3.85;2.92;;;24.80;60.20;;;;;;5021462;28;20037;-86
2021/06/08 13:04:06;;;;;;;5.18;3.30;;;24.90;59.30;;;;;;5025516;28;20044;-83
2021/06/08 13:07:34;;;;;;;6.03;2.63;;;24.70;58.00;;;;;;5009129;28;20044;-83
2021/06/08 13:14:22;;;;;;;2.22;1.92;;;25.10;60.30;;;;;;4927581;29;20142;-83
2021/06/08 13:16:50;;;;;;;3.22;2.40;;;25.20;63.60;;;;;;4927894;29;20078;-82
2021/06/08 13:19:53;;;;;;;3.88;2.72;;;25.20;60.80;;;;;;4940575;28;20814;-84
2021/06/08 13:40:18;;;;;;;1.85;1.67;;;25.20;58.70;;;;;;5017215;28;20057;-65
2021/06/08 13:43:15;;;;;;;3.13;1.88;;;25.20;58.10;;;;;;5016915;28;20412;-65
2021/06/08 13:45:45;;;;;;;4.47;2.35;;;25.40;56.80;;;;;;5012686;28;20045;-65
2021/06/08 13:48:32;;;;;;;5.25;2.72;;;25.50;59.40;;;;;;5018423;28;20042;-66
2021/06/08 13:51:15;;;;;;;3.20;2.22;;;25.60;56.60;;;;;;5019069;28;20133;-65
2021/06/08 13:53:43;;;;;;;1.90;1.70;;;25.60;56.70;;;;;;5017226;28;20120;-66
2021/06/08 13:56:24;;;;;;;6.22;2.28;;;25.50;57.30;;;;;;5017193;28;20113;-65
2021/06/08 14:02:07;;;;;;;3.42;1.83;;;25.50;55.70;;;;;;5018705;28;20044;-65
2021/06/08 14:04:48;;;;;;;3.95;2.28;;;25.40;56.80;;;;;;5016476;28;20126;-65
2021/06/08 14:07:16;;;;;;;4.05;2.25;;;25.30;59.20;;;;;;5016205;28;20044;-65
2021/06/08 14:09:44;;;;;;;6.78;2.17;;;25.40;59.20;;;;;;5017046;28;20065;-65
2021/06/08 14:12:10;;;;;;;3.75;2.17;;;25.20;58.60;;;;;;5015422;28;20515;-65
2021/06/08 14:14:37;;;;;;;4.05;2.10;;;25.30;60.40;;;;;;5018123;28;20037;-65
2021/06/08 14:17:10;;;;;;;3.10;1.80;;;25.40;58.20;;;;;;5017645;28;20030;-65